sensor_id;sensor_type;location;lat;lon;timestamp;temperature;humidity
13642;DHT22;6894;52.196;9.904;2022-12-31T00:00:55;11.90;99.90
13642;DHT22;6894;52.196;9.904;2022-12-31T00:03:24;11.90;99.90
13642;DHT22;6894;52.196;9.904;2022-12-31T00:05:50;11.90;99.90
13642;DHT22;6894;52.196;9.904;2022-12-31T00:08:17;12.00;99.90
13642;DHT22;6894;52.196;9.904;2022-12-31T00:10:44;12.00;99.90
13642;DHT22;6894;52.196;9.904;2022-12-31T00:13:11;12.00;99.90
13642;DHT22;6894;52.196;9.904;2022-12-31T00:15:39;12.10;99.90
13642;DHT22;6894;52.196;9.904;2022-12-31T00:18:06;12.20;99.90
13642;DHT22;6894;52.196;9.904;2022-12-31T00:20:37;12.10;99.90
13642;DHT22;6894;52.196;9.904;2022-12-31T00:23:04;12.10;99.90
13642;DHT22;6894;52.196;9.904;2022-12-31T00:25:33;12.00;99.90
13642;DHT22;6894;52.196;9.904;2022-12-31T00:28:00;12.00;99.90
13642;DHT22;6894;52.196;9.904;2022-12-31T00:30:27;12.00;99.90
13642;DHT22;6894;52.196;9.904;2022-12-31T00:32:53;12.10;99.90
13642;DHT22;6894;52.196;9.904;2022-12-31T00:35:20;12.10;99.90
13642;DHT22;6894;52.196;9.904;2022-12-31T00:37:50;12.00;99.90
13642;DHT22;6894;52.196;9.904;2022-12-31T00:40:17;12.10;99.90
13642;DHT22;6894;52.196;9.904;2022-12-31T00:42:43;12.20;99.90
13642;DHT22;6894;52.196;9.904;2022-12-31T00:45:10;12.10;99.90
13642;DHT22;6894;52.196;9.904;2022-12-31T00:47:37;12.20;99.90
13642;DHT22;6894;52.196;9.904;2022-12-31T00:50:05;12.10;99.90
13642;DHT22;6894;52.196;9.904;2022-12-31T00:52:31;12.20;99.90
13642;DHT22;6894;52.196;9.904;2022-12-31T00:54:59;12.10;99.90
13642;DHT22;6894;52.196;9.904;2022-12-31T00:57:26;12.20;99.90
13642;DHT22;6894;52.196;9.904;2022-12-31T00:59:53;12.20;99.90
13642;DHT22;6894;52.196;9.904;2022-12-31T01:02:19;12.30;99.90
13642;DHT22;6894;52.196;9.904;2022-12-31T01:04:46;12.30;99.90
13642;DHT22;6894;52.196;9.904;2022-12-31T01:07:13;12.20;99.90
13642;DHT22;6894;52.196;9.904;2022-12-31T01:09:40;12.30;99.90
13642;DHT22;6894;52.196;9.904;2022-12-31T01:12:08;12.30;99.90
13642;DHT22;6894;52.196;9.904;2022-12-31T01:14:35;12.40;99.90
13642;DHT22;6894;52.196;9.904;2022-12-31T01:17:01;12.40;99.90
13642;DHT22;6894;52.196;9.904;2022-12-31T01:19:28;12.40;99.90
13642;DHT22;6894;52.196;9.904;2022-12-31T01:21:55;12.30;99.90
13642;DHT22;6894;52.196;9.904;2022-12-31T01:24:22;12.20;99.90
13642;DHT22;6894;52.196;9.904;2022-12-31T01:26:49;12.20;99.90
13642;DHT22;6894;52.196;9.904;2022-12-31T01:29:18;12.10;99.90
13642;DHT22;6894;52.196;9.904;2022-12-31T01:31:45;12.20;99.90
13642;DHT22;6894;52.196;9.904;2022-12-31T01:34:11;12.20;99.90
13642;DHT22;6894;52.196;9.904;2022-12-31T01:36:38;12.10;99.90
13642;DHT22;6894;52.196;9.904;2022-12-31T01:39:07;12.20;99.90
13642;DHT22;6894;52.196;9.904;2022-12-31T01:41:35;12.00;99.90
13642;DHT22;6894;52.196;9.904;2022-12-31T01:47:14;12.00;99.90
13642;DHT22;6894;52.196;9.904;2022-12-31T01:49:43;12.10;99.90
13642;DHT22;6894;52.196;9.904;2022-12-31T01:52:16;12.10;99.90
13642;DHT22;6894;52.196;9.904;2022-12-31T01:54:46;12.10;99.90
13642;DHT22;6894;52.196;9.904;2022-12-31T01:57:15;12.20;99.90
13642;DHT22;6894;52.196;9.904;2022-12-31T01:59:43;12.20;99.90
13642;DHT22;6894;52.196;9.904;2022-12-31T02:02:12;12.30;99.90
13642;DHT22;6894;52.196;9.904;2022-12-31T02:04:40;12.30;99.90
13642;DHT22;6894;52.196;9.904;2022-12-31T02:07:08;12.40;99.90
13642;DHT22;6894;52.196;9.904;2022-12-31T02:09:37;12.50;99.90
13642;DHT22;6894;52.196;9.904;2022-12-31T02:12:05;12.50;99.90
13642;DHT22;6894;52.196;9.904;2022-12-31T02:14:35;12.60;99.90
13642;DHT22;6894;52.196;9.904;2022-12-31T02:17:08;12.60;99.90
13642;DHT22;6894;52.196;9.904;2022-12-31T02:23:02;12.60;99.90
13642;DHT22;6894;52.196;9.904;2022-12-31T02:25:51;12.70;99.90
13642;DHT22;6894;52.196;9.904;2022-12-31T02:28:34;12.80;99.90
13642;DHT22;6894;52.196;9.904;2022-12-31T02:31:08;12.70;99.90
13642;DHT22;6894;52.196;9.904;2022-12-31T02:33:38;12.70;99.90
13642;DHT22;6894;52.196;9.904;2022-12-31T02:36:10;12.70;99.90
13642;DHT22;6894;52.196;9.904;2022-12-31T02:38:40;12.70;99.90
13642;DHT22;6894;52.196;9.904;2022-12-31T02:41:11;12.70;99.90
13642;DHT22;6894;52.196;9.904;2022-12-31T02:43:58;12.70;99.90
13642;DHT22;6894;52.196;9.904;2022-12-31T02:46:30;12.60;99.90
13642;DHT22;6894;52.196;9.904;2022-12-31T02:49:03;12.60;99.90
13642;DHT22;6894;52.196;9.904;2022-12-31T02:51:38;12.60;99.90
13642;DHT22;6894;52.196;9.904;2022-12-31T02:54:15;12.60;99.90
13642;DHT22;6894;52.196;9.904;2022-12-31T02:56:51;12.70;99.90
13642;DHT22;6894;52.196;9.904;2022-12-31T02:59:22;12.70;99.90
13642;DHT22;6894;52.196;9.904;2022-12-31T03:02:13;12.70;99.90
13642;DHT22;6894;52.196;9.904;2022-12-31T03:04:47;12.70;99.90
13642;DHT22;6894;52.196;9.904;2022-12-31T03:07:18;12.70;99.90
13642;DHT22;6894;52.196;9.904;2022-12-31T03:09:45;12.70;99.90
13642;DHT22;6894;52.196;9.904;2022-12-31T03:12:12;12.70;99.90
13642;DHT22;6894;52.196;9.904;2022-12-31T03:14:57;12.80;99.90
13642;DHT22;6894;52.196;9.904;2022-12-31T03:17:25;12.70;99.90
13642;DHT22;6894;52.196;9.904;2022-12-31T03:19:52;12.70;99.90
13642;DHT22;6894;52.196;9.904;2022-12-31T03:22:40;12.60;99.90
13642;DHT22;6894;52.196;9.904;2022-12-31T03:25:09;12.60;99.90
13642;DHT22;6894;52.196;9.904;2022-12-31T03:27:53;12.60;99.90
13642;DHT22;6894;52.196;9.904;2022-12-31T03:30:21;12.50;99.90
13642;DHT22;6894;52.196;9.904;2022-12-31T03:32:50;12.50;99.90
13642;DHT22;6894;52.196;9.904;2022-12-31T03:35:18;12.50;99.90
13642;DHT22;6894;52.196;9.904;2022-12-31T03:37:46;12.50;99.90
13642;DHT22;6894;52.196;9.904;2022-12-31T03:40:13;12.40;99.90
13642;DHT22;6894;52.196;9.904;2022-12-31T03:42:40;12.40;99.90
13642;DHT22;6894;52.196;9.904;2022-12-31T03:45:09;12.40;99.90
13642;DHT22;6894;52.196;9.904;2022-12-31T03:47:36;12.30;99.90
13642;DHT22;6894;52.196;9.904;2022-12-31T03:50:05;12.30;99.90
13642;DHT22;6894;52.196;9.904;2022-12-31T03:52:32;12.30;99.90
13642;DHT22;6894;52.196;9.904;2022-12-31T03:54:59;12.30;99.90
13642;DHT22;6894;52.196;9.904;2022-12-31T03:57:27;12.30;99.90
13642;DHT22;6894;52.196;9.904;2022-12-31T03:59:53;12.40;99.90
13642;DHT22;6894;52.196;9.904;2022-12-31T04:02:20;12.40;99.90
13642;DHT22;6894;52.196;9.904;2022-12-31T04:04:47;12.40;99.90
13642;DHT22;6894;52.196;9.904;2022-12-31T04:07:15;12.50;99.90
13642;DHT22;6894;52.196;9.904;2022-12-31T04:09:42;12.50;99.90
13642;DHT22;6894;52.196;9.904;2022-12-31T04:12:08;12.60;99.90
13642;DHT22;6894;52.196;9.904;2022-12-31T04:14:35;12.70;99.90
13642;DHT22;6894;52.196;9.904;2022-12-31T04:17:02;12.70;99.90
13642;DHT22;6894;52.196;9.904;2022-12-31T04:19:28;12.80;99.90
13642;DHT22;6894;52.196;9.904;2022-12-31T04:21:55;12.90;99.90
13642;DHT22;6894;52.196;9.904;2022-12-31T04:24:23;13.00;99.90
13642;DHT22;6894;52.196;9.904;2022-12-31T04:26:50;13.20;99.90
13642;DHT22;6894;52.196;9.904;2022-12-31T04:29:17;13.30;99.90
13642;DHT22;6894;52.196;9.904;2022-12-31T04:31:43;13.40;99.90
13642;DHT22;6894;52.196;9.904;2022-12-31T04:34:10;13.50;99.90
13642;DHT22;6894;52.196;9.904;2022-12-31T04:36:37;13.60;99.90
13642;DHT22;6894;52.196;9.904;2022-12-31T04:39:03;13.70;99.90
13642;DHT22;6894;52.196;9.904;2022-12-31T04:41:31;13.80;99.90
13642;DHT22;6894;52.196;9.904;2022-12-31T04:43:59;13.80;99.90
13642;DHT22;6894;52.196;9.904;2022-12-31T04:46:27;13.90;99.90
13642;DHT22;6894;52.196;9.904;2022-12-31T04:48:54;14.00;99.90
13642;DHT22;6894;52.196;9.904;2022-12-31T04:51:21;14.00;99.90
13642;DHT22;6894;52.196;9.904;2022-12-31T04:53:49;14.00;99.90
13642;DHT22;6894;52.196;9.904;2022-12-31T04:56:16;14.10;99.90
13642;DHT22;6894;52.196;9.904;2022-12-31T04:58:44;14.30;99.90
13642;DHT22;6894;52.196;9.904;2022-12-31T05:01:11;14.20;99.90
13642;DHT22;6894;52.196;9.904;2022-12-31T05:03:39;14.30;99.90
13642;DHT22;6894;52.196;9.904;2022-12-31T05:06:11;14.30;99.90
13642;DHT22;6894;52.196;9.904;2022-12-31T05:08:38;14.30;99.90
13642;DHT22;6894;52.196;9.904;2022-12-31T05:11:05;14.40;99.90
13642;DHT22;6894;52.196;9.904;2022-12-31T05:13:31;14.50;99.90
13642;DHT22;6894;52.196;9.904;2022-12-31T05:16:00;14.50;99.90
13642;DHT22;6894;52.196;9.904;2022-12-31T05:18:26;14.60;99.90
13642;DHT22;6894;52.196;9.904;2022-12-31T05:20:53;14.70;99.90
13642;DHT22;6894;52.196;9.904;2022-12-31T05:23:21;14.70;99.90
13642;DHT22;6894;52.196;9.904;2022-12-31T05:25:48;14.80;99.90
13642;DHT22;6894;52.196;9.904;2022-12-31T05:28:15;14.90;99.90
13642;DHT22;6894;52.196;9.904;2022-12-31T05:30:42;14.90;99.90
13642;DHT22;6894;52.196;9.904;2022-12-31T05:33:10;14.90;99.90
13642;DHT22;6894;52.196;9.904;2022-12-31T05:35:37;14.80;99.90
13642;DHT22;6894;52.196;9.904;2022-12-31T05:38:04;14.70;99.90
13642;DHT22;6894;52.196;9.904;2022-12-31T05:40:30;14.40;99.90
13642;DHT22;6894;52.196;9.904;2022-12-31T05:42:57;14.10;99.90
13642;DHT22;6894;52.196;9.904;2022-12-31T05:45:24;13.90;99.90
13642;DHT22;6894;52.196;9.904;2022-12-31T05:47:50;13.80;99.90
13642;DHT22;6894;52.196;9.904;2022-12-31T05:50:19;13.70;99.90
13642;DHT22;6894;52.196;9.904;2022-12-31T05:52:45;13.60;99.90
13642;DHT22;6894;52.196;9.904;2022-12-31T05:55:12;13.50;99.90
13642;DHT22;6894;52.196;9.904;2022-12-31T05:57:39;13.40;99.90
13642;DHT22;6894;52.196;9.904;2022-12-31T06:00:08;13.30;99.90
13642;DHT22;6894;52.196;9.904;2022-12-31T06:02:35;13.30;99.90
13642;DHT22;6894;52.196;9.904;2022-12-31T06:05:02;13.20;99.90
13642;DHT22;6894;52.196;9.904;2022-12-31T06:07:30;13.20;99.90
13642;DHT22;6894;52.196;9.904;2022-12-31T06:09:57;13.30;99.90
13642;DHT22;6894;52.196;9.904;2022-12-31T06:12:23;13.10;99.90
13642;DHT22;6894;52.196;9.904;2022-12-31T06:14:50;13.10;99.90
13642;DHT22;6894;52.196;9.904;2022-12-31T06:17:17;13.10;99.90
13642;DHT22;6894;52.196;9.904;2022-12-31T06:19:45;13.10;99.90
13642;DHT22;6894;52.196;9.904;2022-12-31T06:22:12;13.20;99.90
13642;DHT22;6894;52.196;9.904;2022-12-31T06:24:40;13.20;99.90
13642;DHT22;6894;52.196;9.904;2022-12-31T06:27:07;13.10;99.90
13642;DHT22;6894;52.196;9.904;2022-12-31T06:29:34;13.20;99.90
13642;DHT22;6894;52.196;9.904;2022-12-31T06:32:01;13.10;99.90
13642;DHT22;6894;52.196;9.904;2022-12-31T06:34:27;13.10;99.90
13642;DHT22;6894;52.196;9.904;2022-12-31T06:36:54;13.10;99.90
13642;DHT22;6894;52.196;9.904;2022-12-31T06:39:21;13.10;99.90
13642;DHT22;6894;52.196;9.904;2022-12-31T06:41:49;13.00;99.90
13642;DHT22;6894;52.196;9.904;2022-12-31T06:44:15;13.10;99.90
13642;DHT22;6894;52.196;9.904;2022-12-31T06:46:42;13.00;99.90
13642;DHT22;6894;52.196;9.904;2022-12-31T06:49:09;13.00;99.90
13642;DHT22;6894;52.196;9.904;2022-12-31T06:51:36;13.00;99.90
13642;DHT22;6894;52.196;9.904;2022-12-31T06:54:02;12.90;99.90
13642;DHT22;6894;52.196;9.904;2022-12-31T06:56:30;13.00;99.90
13642;DHT22;6894;52.196;9.904;2022-12-31T06:58:59;12.90;99.90
13642;DHT22;6894;52.196;9.904;2022-12-31T07:01:33;13.00;99.90
13642;DHT22;6894;52.196;9.904;2022-12-31T07:04:24;13.10;99.90
13642;DHT22;6894;52.196;9.904;2022-12-31T07:06:58;13.50;99.90
13642;DHT22;6894;52.196;9.904;2022-12-31T07:09:35;13.50;99.90
13642;DHT22;6894;52.196;9.904;2022-12-31T07:12:09;13.60;99.90
13642;DHT22;6894;52.196;9.904;2022-12-31T07:14:43;13.70;99.90
13642;DHT22;6894;52.196;9.904;2022-12-31T07:17:22;13.80;99.90
13642;DHT22;6894;52.196;9.904;2022-12-31T07:19:56;14.10;99.90
13642;DHT22;6894;52.196;9.904;2022-12-31T07:22:25;14.30;99.90
13642;DHT22;6894;52.196;9.904;2022-12-31T07:24:52;14.60;99.90
13642;DHT22;6894;52.196;9.904;2022-12-31T07:27:33;14.90;99.90
13642;DHT22;6894;52.196;9.904;2022-12-31T07:30:08;15.10;99.90
13642;DHT22;6894;52.196;9.904;2022-12-31T07:32:49;15.30;99.90
13642;DHT22;6894;52.196;9.904;2022-12-31T07:35:25;15.30;99.90
13642;DHT22;6894;52.196;9.904;2022-12-31T07:38:01;15.50;99.90
13642;DHT22;6894;52.196;9.904;2022-12-31T07:40:37;15.70;99.90
13642;DHT22;6894;52.196;9.904;2022-12-31T07:43:13;15.70;99.90
13642;DHT22;6894;52.196;9.904;2022-12-31T07:45:48;15.70;99.90
13642;DHT22;6894;52.196;9.904;2022-12-31T07:48:22;15.80;99.90
13642;DHT22;6894;52.196;9.904;2022-12-31T07:50:50;15.90;99.90
13642;DHT22;6894;52.196;9.904;2022-12-31T07:53:19;16.10;99.90
13642;DHT22;6894;52.196;9.904;2022-12-31T07:55:47;16.00;99.90
13642;DHT22;6894;52.196;9.904;2022-12-31T07:58:19;16.20;99.90
13642;DHT22;6894;52.196;9.904;2022-12-31T08:00:50;16.20;99.90
13642;DHT22;6894;52.196;9.904;2022-12-31T08:03:29;16.20;95.90
13642;DHT22;6894;52.196;9.904;2022-12-31T08:06:09;16.20;62.20
13642;DHT22;6894;52.196;9.904;2022-12-31T08:08:48;16.30;66.10
13642;DHT22;6894;52.196;9.904;2022-12-31T08:11:23;16.30;71.10
13642;DHT22;6894;52.196;9.904;2022-12-31T08:13:52;16.40;26.70
13642;DHT22;6894;52.196;9.904;2022-12-31T08:16:22;16.40;55.70
13642;DHT22;6894;52.196;9.904;2022-12-31T08:18:49;16.40;87.00
13642;DHT22;6894;52.196;9.904;2022-12-31T08:21:24;16.30;97.90
13642;DHT22;6894;52.196;9.904;2022-12-31T08:24:00;16.30;65.00
13642;DHT22;6894;52.196;9.904;2022-12-31T08:26:35;16.40;33.10
13642;DHT22;6894;52.196;9.904;2022-12-31T08:29:17;16.60;1.00
13642;DHT22;6894;52.196;9.904;2022-12-31T08:31:52;16.50;1.00
13642;DHT22;6894;52.196;9.904;2022-12-31T08:34:27;16.60;1.00
13642;DHT22;6894;52.196;9.904;2022-12-31T08:37:00;17.20;1.00
13642;DHT22;6894;52.196;9.904;2022-12-31T08:39:43;16.70;1.00
13642;DHT22;6894;52.196;9.904;2022-12-31T08:42:23;16.60;9.90
13642;DHT22;6894;52.196;9.904;2022-12-31T08:44:58;16.50;63.60
13642;DHT22;6894;52.196;9.904;2022-12-31T08:47:33;16.40;95.30
13642;DHT22;6894;52.196;9.904;2022-12-31T08:50:06;16.30;99.90
13642;DHT22;6894;52.196;9.904;2022-12-31T08:52:38;16.30;99.90
13642;DHT22;6894;52.196;9.904;2022-12-31T08:55:06;16.30;99.90
13642;DHT22;6894;52.196;9.904;2022-12-31T08:57:39;16.20;99.90
13642;DHT22;6894;52.196;9.904;2022-12-31T09:00:11;16.10;99.90
13642;DHT22;6894;52.196;9.904;2022-12-31T09:02:54;16.10;99.90
13642;DHT22;6894;52.196;9.904;2022-12-31T09:05:29;16.00;99.90
13642;DHT22;6894;52.196;9.904;2022-12-31T09:08:06;16.00;99.90
13642;DHT22;6894;52.196;9.904;2022-12-31T09:10:41;16.00;99.90
13642;DHT22;6894;52.196;9.904;2022-12-31T09:13:14;16.00;99.90
13642;DHT22;6894;52.196;9.904;2022-12-31T09:15:49;16.00;99.90
13642;DHT22;6894;52.196;9.904;2022-12-31T09:18:20;16.00;99.90
13642;DHT22;6894;52.196;9.904;2022-12-31T09:20:48;16.00;99.90
13642;DHT22;6894;52.196;9.904;2022-12-31T09:23:16;16.10;99.90
13642;DHT22;6894;52.196;9.904;2022-12-31T09:25:49;16.10;99.90
13642;DHT22;6894;52.196;9.904;2022-12-31T09:28:29;16.10;99.90
13642;DHT22;6894;52.196;9.904;2022-12-31T09:31:04;16.30;99.90
13642;DHT22;6894;52.196;9.904;2022-12-31T09:33:39;16.20;99.90
13642;DHT22;6894;52.196;9.904;2022-12-31T09:36:10;16.20;99.90
13642;DHT22;6894;52.196;9.904;2022-12-31T09:38:44;16.30;99.90
13642;DHT22;6894;52.196;9.904;2022-12-31T09:41:51;16.30;96.60
13642;DHT22;6894;52.196;9.904;2022-12-31T09:44:58;16.30;88.20
13642;DHT22;6894;52.196;9.904;2022-12-31T09:53:59;16.40;37.80
13642;DHT22;6894;52.196;9.904;2022-12-31T09:56:34;16.50;1.00
13642;DHT22;6894;52.196;9.904;2022-12-31T09:59:05;16.50;1.00
13642;DHT22;6894;52.196;9.904;2022-12-31T10:01:43;16.70;1.00
13642;DHT22;6894;52.196;9.904;2022-12-31T10:04:29;16.80;1.00
13642;DHT22;6894;52.196;9.904;2022-12-31T10:07:14;16.90;1.00
13642;DHT22;6894;52.196;9.904;2022-12-31T10:09:55;16.90;1.00
13642;DHT22;6894;52.196;9.904;2022-12-31T10:12:38;16.90;1.00
13642;DHT22;6894;52.196;9.904;2022-12-31T10:15:24;17.00;1.00
13642;DHT22;6894;52.196;9.904;2022-12-31T10:18:02;17.20;1.00
13642;DHT22;6894;52.196;9.904;2022-12-31T10:20:50;17.20;1.00
13642;DHT22;6894;52.196;9.904;2022-12-31T10:23:31;17.30;1.00
13642;DHT22;6894;52.196;9.904;2022-12-31T10:26:10;17.40;1.00
13642;DHT22;6894;52.196;9.904;2022-12-31T10:28:48;17.40;1.00
13642;DHT22;6894;52.196;9.904;2022-12-31T10:31:17;17.40;99.90
13642;DHT22;6894;52.196;9.904;2022-12-31T10:33:54;17.40;99.90
13642;DHT22;6894;52.196;9.904;2022-12-31T10:36:30;17.50;99.90
13642;DHT22;6894;52.196;9.904;2022-12-31T10:39:09;17.50;99.90
13642;DHT22;6894;52.196;9.904;2022-12-31T10:42:04;17.50;99.90
13642;DHT22;6894;52.196;9.904;2022-12-31T10:48:15;17.50;70.60
13642;DHT22;6894;52.196;9.904;2022-12-31T10:51:02;17.60;1.00
13642;DHT22;6894;52.196;9.904;2022-12-31T10:53:51;17.60;1.00
13642;DHT22;6894;52.196;9.904;2022-12-31T11:00:12;17.60;1.00
13642;DHT22;6894;52.196;9.904;2022-12-31T11:12:05;17.80;1.00
13642;DHT22;6894;52.196;9.904;2022-12-31T11:14:51;17.80;1.00
13642;DHT22;6894;52.196;9.904;2022-12-31T11:17:35;17.80;1.00
13642;DHT22;6894;52.196;9.904;2022-12-31T11:20:20;17.80;1.00
13642;DHT22;6894;52.196;9.904;2022-12-31T11:22:58;17.80;99.90
13642;DHT22;6894;52.196;9.904;2022-12-31T11:25:31;17.80;1.00
13642;DHT22;6894;52.196;9.904;2022-12-31T11:28:27;17.70;1.00
13642;DHT22;6894;52.196;9.904;2022-12-31T11:31:11;17.70;99.90
13642;DHT22;6894;52.196;9.904;2022-12-31T11:33:53;17.80;99.10
13642;DHT22;6894;52.196;9.904;2022-12-31T11:36:32;17.80;99.90
13642;DHT22;6894;52.196;9.904;2022-12-31T11:39:16;17.70;1.00
13642;DHT22;6894;52.196;9.904;2022-12-31T11:41:49;17.60;1.00
13642;DHT22;6894;52.196;9.904;2022-12-31T11:44:31;17.60;1.00
13642;DHT22;6894;52.196;9.904;2022-12-31T11:47:11;17.60;1.00
13642;DHT22;6894;52.196;9.904;2022-12-31T11:50:02;17.60;1.00
13642;DHT22;6894;52.196;9.904;2022-12-31T11:52:50;17.70;1.00
13642;DHT22;6894;52.196;9.904;2022-12-31T11:55:32;17.70;99.90
13642;DHT22;6894;52.196;9.904;2022-12-31T11:58:12;17.70;99.90
13642;DHT22;6894;52.196;9.904;2022-12-31T12:00:43;17.70;1.00
13642;DHT22;6894;52.196;9.904;2022-12-31T12:03:10;17.60;1.00
13642;DHT22;6894;52.196;9.904;2022-12-31T12:05:39;17.60;1.00
13642;DHT22;6894;52.196;9.904;2022-12-31T12:08:06;17.60;1.00
13642;DHT22;6894;52.196;9.904;2022-12-31T12:10:37;17.60;1.00
13642;DHT22;6894;52.196;9.904;2022-12-31T12:13:12;17.50;1.00
13642;DHT22;6894;52.196;9.904;2022-12-31T12:15:42;17.50;1.00
13642;DHT22;6894;52.196;9.904;2022-12-31T12:18:29;17.50;1.00
13642;DHT22;6894;52.196;9.904;2022-12-31T12:21:07;17.50;1.00
13642;DHT22;6894;52.196;9.904;2022-12-31T12:23:35;17.50;1.00
13642;DHT22;6894;52.196;9.904;2022-12-31T12:26:01;17.60;1.00
13642;DHT22;6894;52.196;9.904;2022-12-31T12:28:30;17.50;99.90
13642;DHT22;6894;52.196;9.904;2022-12-31T12:30:59;17.50;99.90
13642;DHT22;6894;52.196;9.904;2022-12-31T12:33:27;17.60;99.90
13642;DHT22;6894;52.196;9.904;2022-12-31T12:36:07;17.60;1.00
13642;DHT22;6894;52.196;9.904;2022-12-31T12:38:34;17.70;99.90
13642;DHT22;6894;52.196;9.904;2022-12-31T12:41:08;17.70;1.00
13642;DHT22;6894;52.196;9.904;2022-12-31T12:43:36;17.80;1.00
13642;DHT22;6894;52.196;9.904;2022-12-31T12:46:05;17.80;99.90
13642;DHT22;6894;52.196;9.904;2022-12-31T12:48:37;17.90;1.00
13642;DHT22;6894;52.196;9.904;2022-12-31T12:51:20;17.90;1.00
13642;DHT22;6894;52.196;9.904;2022-12-31T12:53:57;17.90;1.00
13642;DHT22;6894;52.196;9.904;2022-12-31T12:56:32;17.90;1.00
13642;DHT22;6894;52.196;9.904;2022-12-31T12:59:23;17.80;1.00
13642;DHT22;6894;52.196;9.904;2022-12-31T13:02:01;17.90;1.00
13642;DHT22;6894;52.196;9.904;2022-12-31T13:04:48;17.80;1.00
13642;DHT22;6894;52.196;9.904;2022-12-31T13:07:31;17.80;1.00
13642;DHT22;6894;52.196;9.904;2022-12-31T13:10:21;17.80;99.90
13642;DHT22;6894;52.196;9.904;2022-12-31T13:12:53;17.90;99.90
13642;DHT22;6894;52.196;9.904;2022-12-31T13:15:28;17.90;99.90
13642;DHT22;6894;52.196;9.904;2022-12-31T13:18:06;17.90;1.00
13642;DHT22;6894;52.196;9.904;2022-12-31T13:20:42;17.90;99.90
13642;DHT22;6894;52.196;9.904;2022-12-31T13:23:18;17.90;99.90
13642;DHT22;6894;52.196;9.904;2022-12-31T13:25:58;17.90;1.00
13642;DHT22;6894;52.196;9.904;2022-12-31T13:28:29;17.90;99.90
13642;DHT22;6894;52.196;9.904;2022-12-31T13:30:59;17.80;99.90
13642;DHT22;6894;52.196;9.904;2022-12-31T13:33:30;17.70;1.00
13642;DHT22;6894;52.196;9.904;2022-12-31T13:35:59;17.50;1.00
13642;DHT22;6894;52.196;9.904;2022-12-31T13:38:32;17.40;86.70
13642;DHT22;6894;52.196;9.904;2022-12-31T13:41:03;17.80;1.00
13642;DHT22;6894;52.196;9.904;2022-12-31T13:43:36;17.20;1.00
13642;DHT22;6894;52.196;9.904;2022-12-31T13:46:11;17.20;1.00
13642;DHT22;6894;52.196;9.904;2022-12-31T13:48:47;17.10;1.00
13642;DHT22;6894;52.196;9.904;2022-12-31T13:51:22;17.10;99.90
13642;DHT22;6894;52.196;9.904;2022-12-31T13:53:58;17.00;99.90
13642;DHT22;6894;52.196;9.904;2022-12-31T13:56:28;17.00;1.00
13642;DHT22;6894;52.196;9.904;2022-12-31T13:59:02;17.00;70.20
13642;DHT22;6894;52.196;9.904;2022-12-31T14:01:42;17.10;1.00
13642;DHT22;6894;52.196;9.904;2022-12-31T14:04:14;17.10;1.00
13642;DHT22;6894;52.196;9.904;2022-12-31T14:06:45;17.20;1.00
13642;DHT22;6894;52.196;9.904;2022-12-31T14:09:19;17.30;1.00
13642;DHT22;6894;52.196;9.904;2022-12-31T14:11:57;17.50;1.00
13642;DHT22;6894;52.196;9.904;2022-12-31T14:14:31;17.60;99.90
13642;DHT22;6894;52.196;9.904;2022-12-31T14:17:11;17.50;1.00
13642;DHT22;6894;52.196;9.904;2022-12-31T14:19:51;17.60;99.90
13642;DHT22;6894;52.196;9.904;2022-12-31T14:22:28;17.60;1.00
13642;DHT22;6894;52.196;9.904;2022-12-31T14:24:59;17.60;1.00
13642;DHT22;6894;52.196;9.904;2022-12-31T14:27:31;17.70;1.00
13642;DHT22;6894;52.196;9.904;2022-12-31T14:30:02;17.80;1.00
13642;DHT22;6894;52.196;9.904;2022-12-31T14:32:52;17.80;1.00
13642;DHT22;6894;52.196;9.904;2022-12-31T14:35:45;17.90;1.00
13642;DHT22;6894;52.196;9.904;2022-12-31T14:38:21;17.80;1.00
13642;DHT22;6894;52.196;9.904;2022-12-31T14:40:59;17.80;99.90
13642;DHT22;6894;52.196;9.904;2022-12-31T14:43:38;17.60;1.00
13642;DHT22;6894;52.196;9.904;2022-12-31T14:46:12;17.60;1.00
13642;DHT22;6894;52.196;9.904;2022-12-31T14:48:51;17.50;1.00
13642;DHT22;6894;52.196;9.904;2022-12-31T14:51:25;17.50;99.90
13642;DHT22;6894;52.196;9.904;2022-12-31T14:53:52;17.50;1.00
13642;DHT22;6894;52.196;9.904;2022-12-31T14:56:31;17.50;1.00
13642;DHT22;6894;52.196;9.904;2022-12-31T14:58:59;17.60;1.00
13642;DHT22;6894;52.196;9.904;2022-12-31T15:01:27;17.70;99.90
13642;DHT22;6894;52.196;9.904;2022-12-31T15:03:55;17.70;99.90
13642;DHT22;6894;52.196;9.904;2022-12-31T15:06:44;17.80;1.00
13642;DHT22;6894;52.196;9.904;2022-12-31T15:09:21;17.70;16.70
13642;DHT22;6894;52.196;9.904;2022-12-31T15:12:18;17.70;99.90
13642;DHT22;6894;52.196;9.904;2022-12-31T15:15:19;17.60;99.90
13642;DHT22;6894;52.196;9.904;2022-12-31T15:17:57;17.70;99.90
13642;DHT22;6894;52.196;9.904;2022-12-31T15:20:48;17.60;99.90
13642;DHT22;6894;52.196;9.904;2022-12-31T15:23:20;17.60;99.90
13642;DHT22;6894;52.196;9.904;2022-12-31T15:25:50;17.60;99.90
13642;DHT22;6894;52.196;9.904;2022-12-31T15:28:29;17.60;99.90
13642;DHT22;6894;52.196;9.904;2022-12-31T15:31:02;17.50;99.90
13642;DHT22;6894;52.196;9.904;2022-12-31T15:33:31;17.50;1.00
13642;DHT22;6894;52.196;9.904;2022-12-31T15:36:11;17.60;1.00
13642;DHT22;6894;52.196;9.904;2022-12-31T15:38:39;17.60;99.90
13642;DHT22;6894;52.196;9.904;2022-12-31T15:41:25;17.50;1.00
13642;DHT22;6894;52.196;9.904;2022-12-31T15:43:56;17.50;99.90
13642;DHT22;6894;52.196;9.904;2022-12-31T15:46:27;17.50;1.00
13642;DHT22;6894;52.196;9.904;2022-12-31T15:48:56;17.50;99.90
13642;DHT22;6894;52.196;9.904;2022-12-31T15:51:28;17.60;99.90
13642;DHT22;6894;52.196;9.904;2022-12-31T15:53:57;17.60;1.00
13642;DHT22;6894;52.196;9.904;2022-12-31T15:56:31;17.50;1.00
13642;DHT22;6894;52.196;9.904;2022-12-31T15:59:02;17.70;99.90
13642;DHT22;6894;52.196;9.904;2022-12-31T16:01:31;17.50;99.90
13642;DHT22;6894;52.196;9.904;2022-12-31T16:04:01;17.60;1.00
13642;DHT22;6894;52.196;9.904;2022-12-31T16:06:32;17.60;99.90
13642;DHT22;6894;52.196;9.904;2022-12-31T16:09:03;17.50;1.00
13642;DHT22;6894;52.196;9.904;2022-12-31T16:11:35;17.50;90.50
13642;DHT22;6894;52.196;9.904;2022-12-31T16:14:03;17.50;99.90
13642;DHT22;6894;52.196;9.904;2022-12-31T16:16:31;17.50;1.00
13642;DHT22;6894;52.196;9.904;2022-12-31T16:18:58;17.60;99.90
13642;DHT22;6894;52.196;9.904;2022-12-31T16:21:29;17.60;99.90
13642;DHT22;6894;52.196;9.904;2022-12-31T16:23:58;17.60;99.90
13642;DHT22;6894;52.196;9.904;2022-12-31T16:26:30;17.70;99.90
13642;DHT22;6894;52.196;9.904;2022-12-31T16:28:57;17.60;99.90
13642;DHT22;6894;52.196;9.904;2022-12-31T16:31:28;17.60;99.90
13642;DHT22;6894;52.196;9.904;2022-12-31T16:34:03;17.60;1.00
13642;DHT22;6894;52.196;9.904;2022-12-31T16:36:30;17.70;1.00
13642;DHT22;6894;52.196;9.904;2022-12-31T16:39:21;17.60;1.00
13642;DHT22;6894;52.196;9.904;2022-12-31T16:41:49;17.70;1.00
13642;DHT22;6894;52.196;9.904;2022-12-31T16:44:24;17.60;1.00
13642;DHT22;6894;52.196;9.904;2022-12-31T16:46:54;17.60;1.00
13642;DHT22;6894;52.196;9.904;2022-12-31T16:49:23;17.60;73.70
13642;DHT22;6894;52.196;9.904;2022-12-31T16:51:51;17.50;99.90
13642;DHT22;6894;52.196;9.904;2022-12-31T16:54:27;17.50;99.90